Time;durP1;ratioP1;P1;durP2;ratioP2;P2;SDS_P1;SDS_P2;PMS_P1;PMS_P2;Temp;Humidity;BMP_temperature;BMP_pressure;BME280_temperature;BME280_humidity;BME280_pressure;Samples;Min_cycle;Max_cycle;Signal;HPM_P1;HPM_P2
2021/04/18 00:00:52;;;;;;;36.25;15.23;;;;;;;1.13;97.48;100343.27;1744073;82;21159;-72
2021/04/18 00:03:20;;;;;;;33.25;13.40;;;;;;;1.17;97.64;100342.84;1743640;82;21640;-74
2021/04/18 00:05:49;;;;;;;33.90;12.15;;;;;;;1.22;97.78;100339.42;1740085;81;21203;-73
2021/04/18 00:08:16;;;;;;;33.75;12.47;;;;;;;1.24;97.83;100341.59;1747300;81;21212;-73
2021/04/18 00:10:46;;;;;;;46.65;15.38;;;;;;;1.29;97.84;100344.62;1744104;82;21264;-75
2021/04/18 00:13:16;;;;;;;34.08;14.18;;;;;;;1.26;97.99;100342.88;1746458;81;21231;-74
2021/04/18 00:15:45;;;;;;;41.50;15.03;;;;;;;1.27;98.11;100344.63;1748069;81;21201;-74
2021/04/18 00:18:15;;;;;;;25.43;14.35;;;;;;;1.28;98.20;100339.00;1747663;82;21374;-74
2021/04/18 00:20:43;;;;;;;38.28;17.90;;;;;;;1.31;98.43;100342.50;1739341;81;21176;-74
2021/04/18 00:23:11;;;;;;;46.85;21.02;;;;;;;1.33;98.59;100343.34;1742836;81;21229;-73
2021/04/18 00:25:40;;;;;;;41.77;21.37;;;;;;;1.38;98.60;100340.77;1735219;81;21195;-72
2021/04/18 00:28:08;;;;;;;49.23;23.32;;;;;;;1.42;98.63;100338.18;1758292;81;21655;-72
2021/04/18 00:30:36;;;;;;;52.15;24.18;;;;;;;1.46;98.62;100341.23;1768144;81;21446;-72
2021/04/18 00:33:03;;;;;;;52.55;23.18;;;;;;;1.49;98.74;100338.22;1767757;81;21175;-73
2021/04/18 00:35:32;;;;;;;50.88;23.15;;;;;;;1.52;98.84;100342.11;1767997;80;21239;-73
2021/04/18 00:37:59;;;;;;;55.58;24.07;;;;;;;1.58;99.07;100343.44;1767656;80;21192;-73
2021/04/18 00:40:27;;;;;;;58.68;27.32;;;;;;;1.66;99.23;100345.20;1767970;80;21642;-73
2021/04/18 00:42:55;;;;;;;53.20;25.92;;;;;;;1.74;99.21;100347.80;1767964;81;22711;-72
2021/04/18 00:45:23;;;;;;;38.78;20.23;;;;;;;1.81;99.24;100339.16;1768139;81;21669;-73
2021/04/18 00:47:53;;;;;;;41.30;20.82;;;;;;;1.84;99.26;100336.59;1767864;81;21179;-73
2021/04/18 00:50:25;;;;;;;31.00;16.62;;;;;;;1.93;99.47;100337.02;1768426;80;21207;-73
2021/04/18 00:52:53;;;;;;;26.17;13.80;;;;;;;1.96;99.51;100330.98;1768246;80;21636;-73
2021/04/18 00:55:26;;;;;;;26.68;12.53;;;;;;;1.98;99.37;100326.62;1768265;80;21377;-73
2021/04/18 00:57:56;;;;;;;31.52;17.37;;;;;;;1.99;99.27;100316.69;1768054;81;21755;-72
2021/04/18 01:00:25;;;;;;;42.25;20.43;;;;;;;2.02;99.15;100321.87;1768303;81;21140;-74
2021/04/18 01:02:53;;;;;;;46.65;22.75;;;;;;;2.06;99.58;100323.62;1761357;80;21156;-72
2021/04/18 01:05:23;;;;;;;45.58;23.55;;;;;;;2.12;99.75;100314.95;1756434;80;21181;-73
2021/04/18 01:07:52;;;;;;;49.95;24.37;;;;;;;2.17;99.87;100314.10;1749838;82;21493;-74
2021/04/18 01:10:20;;;;;;;51.85;25.97;;;;;;;2.30;100.00;100311.05;1749888;81;21196;-72
2021/04/18 01:12:49;;;;;;;50.88;24.85;;;;;;;2.30;100.00;100311.05;1749864;82;21184;-74
2021/04/18 01:15:18;;;;;;;63.00;30.60;;;;;;;2.35;100.00;100309.75;1750379;82;21172;-74
2021/04/18 01:17:47;;;;;;;57.67;29.12;;;;;;;2.49;100.00;100301.53;1750140;81;21209;-73
2021/04/18 01:20:20;;;;;;;44.80;24.07;;;;;;;2.49;100.00;100301.53;1750448;82;22164;-72
2021/04/18 01:22:52;;;;;;;39.13;19.90;;;;;;;2.51;100.00;100284.20;1749924;82;21165;-72
2021/04/18 01:25:39;;;;;;;40.05;23.45;;;;;;;2.75;100.00;100286.30;1866208;76;27882;-72
2021/04/18 01:28:10;;;;;;;37.30;20.97;;;;;;;2.87;100.00;100287.56;1850346;77;22047;-72
2021/04/18 01:30:38;;;;;;;37.28;20.45;;;;;;;3.02;100.00;100285.36;1850727;77;21162;-72
2021/04/18 01:33:06;;;;;;;37.45;21.20;;;;;;;3.14;100.00;100286.60;1850251;77;21151;-72
2021/04/18 01:35:34;;;;;;;34.08;20.08;;;;;;;3.24;100.00;100278.31;1850650;77;21151;-72
2021/04/18 01:38:03;;;;;;;36.53;20.68;;;;;;;3.33;100.00;100286.08;1850389;77;21151;-73
2021/04/18 01:40:33;;;;;;;33.80;18.37;;;;;;;3.39;100.00;100280.84;1817250;78;21213;-74
2021/04/18 01:43:01;;;;;;;33.75;18.98;;;;;;;3.42;100.00;100287.33;1817194;78;21217;-73
2021/04/18 01:45:30;;;;;;;35.65;19.80;;;;;;;3.47;100.00;100286.00;1817362;78;21055;-73
2021/04/18 01:48:00;;;;;;;33.33;19.48;;;;;;;3.48;100.00;100278.19;1817070;78;21173;-73
2021/04/18 01:50:28;;;;;;;36.48;19.00;;;;;;;3.48;100.00;100276.89;1817265;78;21641;-72
2021/04/18 01:52:56;;;;;;;38.15;20.48;;;;;;;3.51;100.00;100276.86;1814097;78;21170;-73
2021/04/18 01:55:25;;;;;;;26.30;16.17;;;;;;;3.52;100.00;100274.70;1817286;78;21780;-72
2021/04/18 01:57:55;;;;;;;24.23;14.00;;;;;;;3.52;100.00;100268.61;1816955;78;21170;-73
2021/04/18 02:00:24;;;;;;;26.60;16.55;;;;;;;3.53;100.00;100260.80;1815436;78;21170;-73
2021/04/18 02:02:54;;;;;;;25.80;14.43;;;;;;;3.53;100.00;100260.80;1816338;78;21178;-73
2021/04/18 02:05:24;;;;;;;29.30;15.80;;;;;;;3.52;100.00;100257.78;1816927;78;21174;-73
2021/04/18 02:07:54;;;;;;;24.40;13.98;;;;;;;3.53;100.00;100258.19;1813526;78;22106;-73
2021/04/18 02:10:22;;;;;;;23.80;14.93;;;;;;;3.54;100.00;100259.94;1809047;79;21176;-74
2021/04/18 02:12:51;;;;;;;32.73;17.45;;;;;;;3.55;100.00;100264.25;1809151;79;22160;-75
2021/04/18 02:15:21;;;;;;;;;;;;;;;3.55;100.00;100264.25;1811622;79;21441;-75
2021/04/18 02:17:50;;;;;;;30.30;17.52;;;;;;;3.57;100.00;100259.91;1808988;79;20260;-73
2021/04/18 02:20:20;;;;;;;29.63;18.17;;;;;;;3.55;100.00;100256.45;1809332;79;22444;-73
2021/04/18 02:22:49;;;;;;;33.50;19.57;;;;;;;3.53;100.00;100250.37;1809037;79;21157;-72
2021/04/18 02:25:19;;;;;;;34.18;19.50;;;;;;;3.56;100.00;100257.30;1805235;77;21118;-71
2021/04/18 02:27:47;;;;;;;28.80;17.92;;;;;;;3.56;100.00;100247.74;1786273;78;21704;-72
2021/04/18 02:30:21;;;;;;;21.48;14.33;;;;;;;3.56;100.00;100242.53;1810097;78;21186;-71
2021/04/18 02:32:50;;;;;;;19.27;11.73;;;;;;;3.59;100.00;100252.09;1791177;78;21365;-72
2021/04/18 02:35:19;;;;;;;18.80;11.38;;;;;;;3.58;100.00;100243.39;1816113;78;21174;-72
2021/04/18 02:37:47;;;;;;;24.75;15.38;;;;;;;3.60;100.00;100238.19;1819759;78;21883;-72
2021/04/18 02:40:18;;;;;;;15.08;8.65;;;;;;;3.64;100.00;100224.72;1819925;78;21174;-72
2021/04/18 02:42:49;;;;;;;26.25;15.48;;;;;;;3.66;100.00;100222.53;1819598;78;21158;-73
2021/04/18 02:45:18;;;;;;;21.73;13.40;;;;;;;3.69;100.00;100216.42;1819880;78;21872;-73
2021/04/18 02:47:50;;;;;;;24.65;14.85;;;;;;;3.74;100.00;100222.45;1819478;78;21198;-72
2021/04/18 02:50:18;;;;;;;25.95;15.72;;;;;;;3.77;100.00;100227.63;1819948;78;21177;-73
2021/04/18 02:52:47;;;;;;;24.90;14.80;;;;;;;3.79;100.00;100218.92;1819894;78;21846;-73
2021/04/18 02:55:18;;;;;;;23.05;13.78;;;;;;;3.86;100.00;100221.05;1820080;78;21165;-74
2021/04/18 02:58:07;;;;;;;23.33;14.33;;;;;;;3.95;100.00;100215.76;1843641;76;22775;-73
2021/04/18 03:00:35;;;;;;;24.85;14.25;;;;;;;3.94;100.00;100211.44;1815833;79;21158;-73
2021/04/18 03:03:05;;;;;;;16.25;10.48;;;;;;;3.95;100.00;100213.16;1815614;79;21207;-73
2021/04/18 03:05:34;;;;;;;18.98;12.68;;;;;;;3.99;100.00;100210.09;1815895;79;21147;-73
2021/04/18 03:08:07;;;;;;;17.95;12.45;;;;;;;4.04;100.00;100209.61;1809851;79;21186;-73
2021/04/18 03:10:35;;;;;;;20.05;12.88;;;;;;;4.07;100.00;100211.32;1783620;80;21214;-73
2021/04/18 03:13:05;;;;;;;18.05;12.03;;;;;;;4.09;100.00;100214.33;1783416;80;21585;-73
2021/04/18 03:15:34;;;;;;;17.25;10.75;;;;;;;4.11;100.00;100209.97;1783767;80;21363;-74
2021/04/18 03:18:05;;;;;;;18.07;12.78;;;;;;;4.16;100.00;100212.54;1783405;80;21031;-73
2021/04/18 03:20:34;;;;;;;20.70;13.08;;;;;;;4.21;100.00;100218.59;1783941;80;22250;-73
2021/04/18 03:23:02;;;;;;;19.37;12.03;;;;;;;4.25;100.00;100222.88;1783573;80;21178;-73
2021/04/18 03:25:30;;;;;;;20.55;12.35;;;;;;;4.28;100.00;100225.48;1783845;80;21171;-73
2021/04/18 03:27:58;;;;;;;18.75;11.57;;;;;;;4.30;100.00;100213.30;1783389;80;22780;-73
2021/04/18 03:30:44;;;;;;;20.65;14.43;;;;;;;4.38;100.00;100213.20;1829958;76;38759;-72
2021/04/18 03:33:14;;;;;;;20.50;13.83;;;;;;;4.41;100.00;100206.19;1816025;79;21148;-74
2021/04/18 03:35:43;;;;;;;17.90;11.18;;;;;;;4.49;100.00;100210.49;1815796;79;21318;-73
2021/04/18 03:38:12;;;;;;;22.50;12.82;;;;;;;4.49;100.00;100211.34;1805365;79;21221;-75
2021/04/18 03:40:43;;;;;;;18.40;11.63;;;;;;;4.50;100.00;100205.23;1783803;80;21186;-73
2021/04/18 03:43:11;;;;;;;14.35;9.25;;;;;;;4.53;100.00;100208.25;1783527;80;21166;-74
2021/04/18 03:45:40;;;;;;;16.65;9.78;;;;;;;4.53;100.00;100209.55;1783658;80;21183;-75
2021/04/18 03:48:09;;;;;;;20.17;11.75;;;;;;;4.53;100.00;100205.64;1783276;80;22339;-76
2021/04/18 03:50:38;;;;;;;20.97;10.82;;;;;;;4.55;100.00;100206.49;1741669;82;21222;-76
2021/04/18 03:53:08;;;;;;;22.50;14.85;;;;;;;4.58;100.00;100208.64;1748069;81;21206;-76
2021/04/18 03:55:37;;;;;;;20.20;12.10;;;;;;;4.65;100.00;100205.52;1730879;82;21182;-76
2021/04/18 03:58:05;;;;;;;22.85;13.75;;;;;;;4.70;100.00;100209.38;1730606;82;21201;-78
2021/04/18 04:00:34;;;;;;;25.45;13.93;;;;;;;4.75;100.00;100214.09;1730845;82;21804;-77
2021/04/18 04:03:02;;;;;;;23.10;14.50;;;;;;;4.78;100.00;100199.25;1783110;80;21143;-76
2021/04/18 04:05:33;;;;;;;21.35;14.10;;;;;;;4.80;100.00;100198.80;1782447;80;21190;-75
2021/04/18 04:08:05;;;;;;;21.15;13.75;;;;;;;4.87;100.00;100205.25;1782975;79;21203;-76
2021/04/18 04:10:33;;;;;;;24.60;15.68;;;;;;;4.89;100.00;100200.44;1783546;80;21138;-77
2021/04/18 04:13:04;;;;;;;19.12;12.88;;;;;;;4.90;100.00;100207.81;1783364;80;21162;-76
2021/04/18 04:15:33;;;;;;;16.85;11.08;;;;;;;4.90;100.00;100206.09;1750049;82;21135;-82
2021/04/18 04:18:02;;;;;;;17.50;12.15;;;;;;;4.93;100.00;100211.71;1732792;81;21194;-80
2021/04/18 04:20:50;;;;;;;22.45;12.58;;;;;;;4.94;100.00;100209.51;1706932;82;21743;-81
2021/04/18 04:23:20;;;;;;;18.00;11.78;;;;;;;4.93;100.00;100199.97;1736716;82;21603;-82
2021/04/18 04:25:49;;;;;;;20.88;12.55;;;;;;;4.90;100.00;100196.07;1749421;82;21409;-83
2021/04/18 04:28:17;;;;;;;18.42;12.73;;;;;;;4.86;100.00;100187.88;1747397;82;21226;-83
2021/04/18 04:30:45;;;;;;;22.90;12.93;;;;;;;4.87;100.00;100193.51;1762122;81;21159;-82
2021/04/18 04:33:14;;;;;;;24.12;13.20;;;;;;;4.84;100.00;100184.83;1758936;80;21645;-84
2021/04/18 04:35:43;;;;;;;23.87;14.18;;;;;;;4.81;100.00;100190.10;1751258;81;21153;-83
2021/04/18 04:38:12;;;;;;;23.73;13.88;;;;;;;4.80;100.00;100186.20;1785148;80;21792;-82
2021/04/18 04:40:39;;;;;;;21.12;14.10;;;;;;;4.75;100.00;100178.42;1788328;80;21178;-83
2021/04/18 04:43:08;;;;;;;20.27;13.32;;;;;;;4.75;100.00;100179.73;1788114;80;21166;-83
2021/04/18 04:45:36;;;;;;;21.23;13.43;;;;;;;4.74;100.00;100180.63;1772054;80;21178;-81
2021/04/18 04:48:08;;;;;;;22.62;14.13;;;;;;;4.76;100.00;100180.59;1786859;80;21178;-81
2021/04/18 04:50:36;;;;;;;19.00;11.60;;;;;;;4.74;100.00;100175.41;1778169;80;22294;-82
2021/04/18 04:53:04;;;;;;;19.52;12.78;;;;;;;4.77;100.00;100175.81;1778385;78;21171;-83
2021/04/18 04:55:31;;;;;;;19.80;12.37;;;;;;;4.79;100.00;100174.91;1786429;78;21123;-81
2021/04/18 04:57:59;;;;;;;20.55;13.15;;;;;;;4.82;100.00;100172.70;1786166;80;21171;-83
2021/04/18 05:00:27;;;;;;;22.40;12.93;;;;;;;4.82;100.00;100169.63;1781852;78;21586;-82
2021/04/18 05:02:55;;;;;;;19.25;12.00;;;;;;;4.81;100.00;100171.84;1785443;78;21809;-82
2021/04/18 05:05:23;;;;;;;19.90;13.08;;;;;;;4.80;100.00;100171.39;1784982;78;21198;-82
2021/04/18 05:07:51;;;;;;;24.47;14.68;;;;;;;4.86;100.00;100176.14;1786712;78;21166;-82
2021/04/18 05:10:19;;;;;;;23.07;14.47;;;;;;;4.88;100.00;100174.34;1787841;80;21444;-81
2021/04/18 05:12:47;;;;;;;23.42;14.73;;;;;;;4.89;100.00;100180.00;1787840;80;21133;-82
2021/04/18 05:15:21;;;;;;;21.30;14.25;;;;;;;4.88;100.00;100179.15;1775751;80;21206;-82
2021/04/18 05:17:47;;;;;;;21.82;13.90;;;;;;;4.91;100.00;100172.58;1776428;80;21424;-83
2021/04/18 05:20:18;;;;;;;22.13;13.93;;;;;;;4.93;100.00;100171.26;1758423;79;21211;-85
2021/04/18 05:22:46;;;;;;;21.48;13.25;;;;;;;4.95;100.00;100168.19;1745529;81;21187;-84
2021/04/18 05:25:15;;;;;;;24.37;14.30;;;;;;;4.98;100.00;100174.66;1780037;80;21095;-83
2021/04/18 05:27:44;;;;;;;19.10;12.90;;;;;;;5.02;100.00;100170.69;1786204;80;21187;-84
2021/04/18 05:30:14;;;;;;;20.88;12.03;;;;;;;5.11;100.00;100159.67;1775686;80;21182;-83
2021/04/18 05:32:42;;;;;;;19.42;12.37;;;;;;;5.16;100.00;100152.67;1778182;80;21139;-84
2021/04/18 05:35:11;;;;;;;17.75;11.38;;;;;;;5.21;100.00;100150.39;1777504;80;21631;-84
2021/04/18 05:37:40;;;;;;;16.97;10.55;;;;;;;5.28;100.00;100154.23;1776921;80;21191;-84
2021/04/18 05:40:09;;;;;;;18.52;11.38;;;;;;;5.37;100.00;100148.87;1776869;80;21301;-84
2021/04/18 05:42:36;;;;;;;16.70;11.48;;;;;;;5.45;100.00;100148.29;1777094;80;21182;-84
2021/04/18 05:45:06;;;;;;;18.40;11.78;;;;;;;5.56;100.00;100143.77;1778638;80;21127;-84
2021/04/18 05:47:34;;;;;;;18.67;12.13;;;;;;;5.64;100.00;100139.28;1760373;81;21185;-85
2021/04/18 05:50:04;;;;;;;19.17;12.35;;;;;;;5.76;100.00;100138.66;1778976;80;21177;-85
2021/04/18 05:52:31;;;;;;;20.92;13.25;;;;;;;5.85;100.00;100138.50;1732633;81;21443;-84
2021/04/18 05:55:00;;;;;;;18.95;12.05;;;;;;;5.90;99.86;100137.97;1778944;80;21167;-85
2021/04/18 05:57:27;;;;;;;19.30;13.05;;;;;;;5.91;99.55;100126.61;1747809;81;21190;-85
2021/04/18 05:59:56;;;;;;;20.88;12.75;;;;;;;5.97;99.54;100133.08;1778878;80;21662;-85
2021/04/18 06:02:24;;;;;;;22.55;13.10;;;;;;;6.02;99.96;100127.31;1760221;81;21159;-84
2021/04/18 06:04:52;;;;;;;18.62;12.58;;;;;;;6.02;99.07;100124.70;1779067;80;21832;-86
2021/04/18 06:07:21;;;;;;;23.60;12.82;;;;;;;6.07;99.46;100125.50;1753892;81;21176;-83
2021/04/18 06:09:49;;;;;;;17.35;11.25;;;;;;;6.11;99.42;100126.73;1774059;80;21714;-86
2021/04/18 06:12:18;;;;;;;17.95;11.15;;;;;;;6.14;99.15;100118.83;1730115;82;21207;-85
2021/04/18 06:14:46;;;;;;;16.25;10.63;;;;;;;6.18;99.12;100123.11;1769956;80;21128;-86
2021/04/18 06:17:15;;;;;;;17.52;11.55;;;;;;;6.18;98.97;100117.43;1724133;83;21442;-86
2021/04/18 06:19:44;;;;;;;18.27;11.08;;;;;;;6.18;98.63;100120.50;1756598;80;21201;-84
2021/04/18 06:22:12;;;;;;;17.70;11.45;;;;;;;6.18;98.54;100119.19;1728225;82;21492;-84
2021/04/18 06:24:40;;;;;;;17.75;12.03;;;;;;;6.18;98.60;100124.42;1730053;82;21846;-86
2021/04/18 06:27:09;;;;;;;17.75;10.85;;;;;;;6.18;98.54;100119.19;1776507;80;21139;-85
2021/04/18 06:29:38;;;;;;;17.77;12.10;;;;;;;6.18;98.67;100116.58;1727038;81;21410;-83
2021/04/18 06:32:07;;;;;;;18.20;11.38;;;;;;;6.19;98.46;100115.67;1708009;83;21755;-84
2021/04/18 06:34:37;;;;;;;21.73;13.03;;;;;;;6.21;98.49;100121.73;1716281;83;21277;-83
2021/04/18 06:37:06;;;;;;;17.82;11.08;;;;;;;6.19;98.02;100126.13;1718708;82;21767;-84
2021/04/18 06:39:35;;;;;;;18.77;11.65;;;;;;;6.18;98.05;100130.50;1730238;81;21190;-84
2021/04/18 06:42:05;;;;;;;18.80;11.88;;;;;;;6.19;98.34;100131.36;1782826;80;21912;-85
2021/04/18 06:44:33;;;;;;;23.15;12.78;;;;;;;6.20;98.25;100133.10;1781605;79;21210;-84
2021/04/18 06:47:02;;;;;;;19.85;11.22;;;;;;;6.21;98.12;100134.81;1780802;80;21184;-79
2021/04/18 06:49:31;;;;;;;17.32;12.18;;;;;;;6.20;98.00;100138.33;1775439;80;21168;-73
2021/04/18 06:51:58;;;;;;;18.98;11.63;;;;;;;6.17;98.06;100130.56;1779391;80;21630;-73
2021/04/18 06:54:26;;;;;;;15.93;11.40;;;;;;;6.16;97.99;100127.51;1780390;79;21201;-74
2021/04/18 06:56:54;;;;;;;17.07;12.20;;;;;;;6.12;98.03;100116.27;1778657;79;21186;-75
2021/04/18 06:59:22;;;;;;;14.53;10.25;;;;;;;6.10;98.10;100118.05;1775628;80;21174;-74
2021/04/18 07:01:50;;;;;;;16.90;11.48;;;;;;;6.08;98.38;100116.75;1771974;79;21158;-74
2021/04/18 07:04:20;;;;;;;15.40;11.07;;;;;;;6.08;98.58;100119.37;1781033;80;21167;-73
2021/04/18 07:06:54;;;;;;;16.90;11.48;;;;;;;6.14;98.67;100117.52;1768061;79;21365;-73
2021/04/18 07:09:24;;;;;;;16.93;10.85;;;;;;;6.13;98.83;100117.97;1778908;79;21336;-74
2021/04/18 07:11:57;;;;;;;19.90;12.85;;;;;;;6.18;98.81;100125.73;1772136;80;21194;-73
2021/04/18 07:14:31;;;;;;;18.85;12.05;;;;;;;6.19;98.84;100123.52;1747046;81;21215;-72
2021/04/18 07:17:13;;;;;;;22.60;13.93;;;;;;;6.21;98.84;100130.89;1744309;81;21183;-74
2021/04/18 07:19:49;;;;;;;20.12;13.00;;;;;;;6.27;99.01;100128.17;1743395;81;21209;-72
2021/04/18 07:22:28;;;;;;;22.35;13.40;;;;;;;6.31;99.01;100123.30;1746633;81;21243;-73
2021/04/18 07:25:01;;;;;;;21.87;13.45;;;;;;;6.38;99.09;100120.97;1728168;82;21195;-71
2021/04/18 07:27:50;;;;;;;20.90;12.90;;;;;;;6.39;98.87;100120.52;1715981;82;21148;-73
2021/04/18 07:30:22;;;;;;;19.57;13.80;;;;;;;6.42;99.04;100123.95;1754300;80;21211;-73
2021/04/18 07:33:07;;;;;;;21.90;14.83;;;;;;;6.44;99.05;100121.28;1774829;80;21356;-73
2021/04/18 07:35:38;;;;;;;21.55;14.65;;;;;;;6.49;99.02;100116.39;1774270;80;21180;-72
2021/04/18 07:38:27;;;;;;;;;;;;;;;6.55;99.06;100116.70;1775934;80;21211;-72
2021/04/18 07:41:18;;;;;;;24.05;13.03;;;;;;;6.58;98.95;100115.77;1781269;79;20729;-74
2021/04/18 07:45:13;;;;;;;21.10;14.43;;;;;;;6.64;98.77;100119.13;1785208;78;27529;-72
2021/04/18 07:47:44;;;;;;;20.65;13.48;;;;;;;6.60;98.83;100121.83;1767311;80;21188;-73
2021/04/18 07:50:27;;;;;;;22.48;14.23;;;;;;;6.64;98.93;100121.73;1762882;80;21367;-73
2021/04/18 07:53:06;;;;;;;18.77;12.43;;;;;;;6.66;98.67;100122.57;1764599;80;21502;-73
2021/04/18 07:55:53;;;;;;;19.50;12.85;;;;;;;6.68;98.87;100119.48;1755809;79;21213;-73
2021/04/18 07:58:21;;;;;;;18.73;12.37;;;;;;;6.74;98.84;100121.12;1758190;79;21162;-71
2021/04/18 08:00:49;;;;;;;21.17;12.88;;;;;;;6.80;98.98;100116.19;1761972;80;21176;-73
2021/04/18 08:03:17;;;;;;;19.48;13.72;;;;;;;6.88;99.05;100115.13;1761946;80;23582;-73
2021/04/18 08:05:46;;;;;;;18.48;12.43;;;;;;;6.95;98.95;100123.71;1756516;80;21182;-72
2021/04/18 08:08:16;;;;;;;18.92;12.80;;;;;;;7.03;98.85;100115.22;1770221;80;21614;-71
2021/04/18 08:10:48;;;;;;;16.93;11.20;;;;;;;7.07;98.67;100115.57;1761508;80;21214;-74
2021/04/18 08:13:22;;;;;;;16.62;11.90;;;;;;;7.14;98.11;100117.60;1760724;80;21155;-70
2021/04/18 08:18:49;;;;;;;13.80;10.03;;;;;;;7.21;97.37;100119.18;1810400;78;28941;-71
2021/04/18 08:21:37;;;;;;;16.87;11.28;;;;;;;7.15;97.25;100118.00;1797870;79;21641;-71
2021/04/18 08:24:08;;;;;;;21.05;12.40;;;;;;;7.18;97.07;100117.95;1716413;82;21374;-71
2021/04/18 08:26:37;;;;;;;16.42;11.48;;;;;;;7.14;96.36;100118.91;1739665;81;21195;-72
2021/04/18 08:29:08;;;;;;;17.37;12.35;;;;;;;7.12;96.45;100120.70;1741526;81;21179;-73
2021/04/18 08:31:54;;;;;;;18.45;11.48;;;;;;;7.12;96.42;100116.77;1741058;82;21152;-74
2021/04/18 08:34:37;;;;;;;19.10;11.85;;;;;;;7.16;96.74;100122.36;1741177;81;21191;-74
2021/04/18 08:37:09;;;;;;;18.60;11.97;;;;;;;7.17;96.38;100121.45;1718831;82;22200;-74
2021/04/18 08:39:38;;;;;;;18.17;12.58;;;;;;;7.18;96.09;100114.45;1705111;83;21183;-74
2021/04/18 08:42:09;;;;;;;17.75;11.97;;;;;;;7.18;96.03;100110.52;1690839;82;21738;-76
2021/04/18 08:44:42;;;;;;;17.85;11.20;;;;;;;7.19;95.98;100111.80;1684346;83;21172;-76
2021/04/18 08:47:15;;;;;;;18.90;11.70;;;;;;;7.21;96.25;100114.39;1688450;83;21178;-76
2021/04/18 08:49:48;;;;;;;18.25;12.25;;;;;;;7.22;96.18;100109.10;1701552;83;21209;-75
2021/04/18 08:52:28;;;;;;;17.70;12.43;;;;;;;7.25;96.17;100103.81;1711395;83;21219;-77
2021/04/18 08:55:05;;;;;;;18.17;11.50;;;;;;;7.32;96.45;100104.53;1708038;83;21219;-75
2021/04/18 08:57:33;;;;;;;16.97;10.90;;;;;;;7.39;96.54;100107.86;1699471;83;22246;-76
2021/04/18 09:00:10;;;;;;;16.25;10.55;;;;;;;7.48;96.70;100108.95;1709932;83;21199;-75
2021/04/18 09:02:38;;;;;;;16.52;10.82;;;;;;;7.57;96.33;100102.17;1689939;83;21269;-75
2021/04/18 09:05:17;;;;;;;18.70;9.88;;;;;;;7.63;95.80;100105.92;1706449;83;21199;-77
2021/04/18 09:07:43;;;;;;;16.80;10.58;;;;;;;7.69;95.67;100112.33;1699012;83;21190;-73
2021/04/18 09:10:14;;;;;;;16.90;10.18;;;;;;;7.76;95.56;100113.89;1695961;83;23881;-71
2021/04/18 09:12:46;;;;;;;19.00;10.70;;;;;;;7.83;95.49;100114.60;1701607;83;21181;-71
2021/04/18 09:15:17;;;;;;;15.18;10.95;;;;;;;7.88;94.97;100114.48;1691065;83;21211;-74
2021/04/18 09:17:45;;;;;;;16.40;11.08;;;;;;;7.89;94.44;100116.19;1698998;83;21692;-72
2021/04/18 09:20:18;;;;;;;15.43;9.63;;;;;;;7.91;94.78;100117.02;1723373;83;21198;-73
2021/04/18 09:22:47;;;;;;;16.23;10.50;;;;;;;7.92;94.62;100122.22;1715690;83;21634;-73
2021/04/18 09:25:18;;;;;;;20.17;10.65;;;;;;;7.94;94.18;100119.12;1707845;83;21204;-73
2021/04/18 09:27:50;;;;;;;15.05;10.23;;;;;;;7.97;94.08;100122.10;1703819;82;21273;-73
2021/04/18 09:30:26;;;;;;;15.88;10.35;;;;;;;8.01;94.17;100123.75;1712874;83;21202;-73
2021/04/18 09:32:55;;;;;;;13.93;9.68;;;;;;;8.03;93.93;100125.88;1775524;80;21129;-73
2021/04/18 09:35:25;;;;;;;16.95;11.97;;;;;;;8.05;93.82;100127.13;1735732;80;21339;-72
2021/04/18 09:37:57;;;;;;;16.10;10.90;;;;;;;8.06;93.53;100132.80;1729322;82;21212;-73
2021/04/18 09:40:27;;;;;;;17.75;12.10;;;;;;;8.04;93.26;100132.84;1776544;80;21361;-71
2021/04/18 09:42:56;;;;;;;17.87;12.70;;;;;;;8.07;93.43;100133.20;1735123;80;22063;-72
2021/04/18 09:45:29;;;;;;;17.52;12.40;;;;;;;8.06;93.33;100133.66;1756721;80;21214;-73
2021/04/18 09:48:15;;;;;;;18.07;10.85;;;;;;;8.08;94.04;100134.48;1756887;80;21180;-74
2021/04/18 09:50:43;;;;;;;15.23;11.45;;;;;;;8.06;92.42;100133.66;1781256;80;21087;-73
2021/04/18 09:53:18;;;;;;;21.33;11.48;;;;;;;8.01;92.43;100129.00;1707852;82;21158;-73
2021/04/18 09:56:06;;;;;;;14.15;10.38;;;;;;;7.98;92.16;100130.37;1711851;82;21684;-72
2021/04/18 09:58:38;;;;;;;19.10;12.60;;;;;;;7.97;92.61;100127.34;1716943;82;21206;-74
2021/04/18 10:01:24;;;;;;;;;;;;;;;8.01;93.02;100130.31;1701108;83;21227;-75
2021/04/18 10:03:53;;;;;;;15.43;11.48;;;;;;;8.03;93.17;100131.56;1690782;83;20280;-74
2021/04/18 10:06:23;;;;;;;17.75;11.97;;;;;;;8.07;93.58;100143.23;1702251;83;22444;-74
2021/04/18 10:08:58;;;;;;;15.05;10.53;;;;;;;8.11;93.32;100143.57;1710561;82;21225;-73
2021/04/18 10:11:37;;;;;;;16.23;11.22;;;;;;;8.15;93.21;100144.36;1715804;83;21190;-72
2021/04/18 10:14:20;;;;;;;15.78;11.38;;;;;;;8.18;93.20;100146.44;1703377;83;21226;-70
2021/04/18 10:16:51;;;;;;;16.97;12.37;;;;;;;8.25;92.79;100150.22;1710031;83;21167;-70
2021/04/18 10:19:22;;;;;;;17.32;13.08;;;;;;;8.27;93.14;100149.27;1768857;79;21592;-71
2021/04/18 10:22:08;;;;;;;21.52;13.88;;;;;;;8.32;93.33;100150.00;1756609;81;21198;-72
2021/04/18 10:24:52;;;;;;;19.73;13.05;;;;;;;8.35;93.21;100150.36;1768554;81;21175;-71
2021/04/18 10:30:14;;;;;;;14.85;11.78;;;;;;;8.44;93.08;100150.14;1863456;76;28236;-72
2021/04/18 10:32:42;;;;;;;19.62;12.75;;;;;;;8.39;93.20;100157.25;1837988;77;21570;-71
2021/04/18 10:35:11;;;;;;;15.45;11.00;;;;;;;8.40;93.25;100161.65;1822993;77;22785;-71
2021/04/18 10:37:39;;;;;;;14.98;10.90;;;;;;;8.46;93.32;100164.55;1794912;79;21243;-72
2021/04/18 10:40:09;;;;;;;15.95;11.30;;;;;;;8.51;93.18;100155.66;1813601;78;21186;-71
2021/04/18 10:42:36;;;;;;;19.37;12.15;;;;;;;8.62;93.12;100159.27;1795785;78;21186;-71
2021/04/18 10:45:08;;;;;;;12.78;10.15;;;;;;;8.70;93.30;100159.92;1783437;78;21531;-71
2021/04/18 10:47:36;;;;;;;16.25;10.68;;;;;;;8.81;93.36;100156.96;1808551;78;21370;-70
2021/04/18 10:50:06;;;;;;;16.45;11.83;;;;;;;8.96;93.21;100155.20;1814129;78;21055;-71
2021/04/18 10:52:34;;;;;;;15.70;11.83;;;;;;;9.31;93.61;100153.26;1811491;79;21155;-71
2021/04/18 10:55:04;;;;;;;16.85;12.07;;;;;;;9.82;94.01;100152.50;1796884;79;21162;-72
2021/04/18 10:57:32;;;;;;;14.98;10.38;;;;;;;10.37;92.98;100148.87;1809966;79;21198;-71
2021/04/18 11:00:00;;;;;;;16.17;11.28;;;;;;;11.05;92.81;100142.82;1786755;78;22351;-71
2021/04/18 11:02:28;;;;;;;18.87;13.00;;;;;;;11.62;89.73;100140.56;1783429;79;21223;-72
2021/04/18 11:04:56;;;;;;;16.97;10.10;;;;;;;12.22;84.30;100143.34;1788871;79;21194;-72
2021/04/18 11:07:24;;;;;;;16.97;10.58;;;;;;;12.59;79.78;100144.34;1783494;80;21162;-71
2021/04/18 11:09:53;;;;;;;11.75;8.60;;;;;;;12.92;75.53;100134.48;1782975;80;21194;-72
2021/04/18 11:12:22;;;;;;;10.50;8.35;;;;;;;13.19;76.00;100130.53;1779639;79;21413;-72
2021/04/18 11:14:51;;;;;;;11.22;8.33;;;;;;;13.35;71.22;100131.16;1813625;79;21142;-72
2021/04/18 11:17:19;;;;;;;10.75;8.65;;;;;;;13.41;72.13;100132.16;1802826;79;21241;-72
2021/04/18 11:19:47;;;;;;;8.83;7.08;;;;;;;13.54;70.86;100133.28;1815413;78;21166;-73
2021/04/18 11:22:17;;;;;;;7.67;6.45;;;;;;;13.73;70.70;100132.36;1800668;78;22126;-70
2021/04/18 11:24:46;;;;;;;9.15;7.22;;;;;;;13.90;67.69;100124.45;1786977;79;21661;-72
2021/04/18 11:27:14;;;;;;;9.90;7.72;;;;;;;14.01;68.20;100120.78;1784113;79;21122;-72
2021/04/18 11:29:44;;;;;;;7.50;5.90;;;;;;;14.15;68.23;100121.84;1784089;79;21635;-72
2021/04/18 11:32:15;;;;;;;7.12;5.65;;;;;;;14.12;65.77;100122.01;1764577;81;21237;-72
2021/04/18 11:34:43;;;;;;;7.53;5.73;;;;;;;14.08;65.17;100123.09;1767136;79;22242;-72
2021/04/18 11:37:11;;;;;;;9.35;5.97;;;;;;;14.11;65.67;100120.31;1815448;79;21717;-72